Airfield :
LOGIN :

Register | Disclaimer

   EN    FR    IT 

 










Legend :    VFR   Marginal VFR   IFR   Intensive IFR   Very Intensive IFR
Visi :
Ceiling :
>= 8 km
>= 3000ft
5 to 8 km
1000 to 3000 ft
1500m to 5 km
500 to 1000 ft
800 to 1500m
200 to 500 ft
< 800m
< 200 ft
Symbols :   Thunderstorms  Fog  Heavy snow  Heavy precipitations  Wind > 20 kt
SIGMETs :     Misc.  Thunderstorms  Icing  Turbulence  Mountain Waves  Volcanic Ashes







- Airport Elevation : 348 ft
- IATA code : STN
- Download approach charts


EGSS - London Stansted

CURRENT METAR :
  • 240150Z AUTO 34001KT 9999 NCD 01/01 Q1032

EXPIRED METARs :
  • 240120Z AUTO 33002KT 9999 NCD 02/01 Q1032
  • 240050Z AUTO 33002KT 9999 NCD 02/01 Q1032
  • 240020Z AUTO 36001KT 9999 NCD 02/01 Q1033
  • 232350Z AUTO 04002KT 9999 NCD 03/01 Q1033

TAF TAF EGSS
Valid from the 24 at 00:00 until the 25 at 06:00 UTC


232258Z 2400/2506 VRB04KT 9999 FEW048
PROB40 2402/2408 6000
BECMG 2408/2411 30012KT
PROB30
TEMPO 2502/2506 8000 BKN012
ATIS : +44 1279 669 325
No reported NOTAMs for that airfield.



MET'MAP, your aeronautical weather chart ! - Copyright ORBIFLY December 2007 - Disclaimer

ORBIFLY MET'MAP TEAM :

Programming & Development : Alexandra Zaïnal
Concept & Development : Baudouin d'Aumeries
Co-Development & Prog : Marc-Olivier Méhu
Technical & hardware support : Manuel Goepfert

Contact : metmap@orbifly.com




SOURCES & CREDITS :

   NOAA